Time;durP1;ratioP1;P1;durP2;ratioP2;P2;SDS_P1;SDS_P2;PMS_P1;PMS_P2;Temp;Humidity;BMP_temperature;BMP_pressure;BME280_temperature;BME280_humidity;BME280_pressure;Samples;Min_cycle;Max_cycle;Signal;HPM_P1;HPM_P2
2022/04/25 00:01:05;;;;;;;8.90;6.80;;;;;;;10.52;63.44;98905.19;1765654;80;21162;-67
2022/04/25 00:03:37;;;;;;;8.53;6.58;;;;;;;10.48;63.53;98905.05;1738674;81;21111;-70
2022/04/25 00:06:07;;;;;;;8.65;6.62;;;;;;;10.46;63.66;98902.60;1765693;80;21014;-68
2022/04/25 00:08:39;;;;;;;9.90;6.83;;;;;;;10.45;63.76;98898.24;1757608;79;21464;-69
2022/04/25 00:11:09;;;;;;;9.83;7.47;;;;;;;10.43;63.78;98897.77;1758464;79;21020;-67
2022/04/25 00:13:39;;;;;;;8.88;6.67;;;;;;;10.42;63.78;98897.52;1749370;80;21704;-68
2022/04/25 00:16:13;;;;;;;10.18;7.50;;;;;;;10.42;63.84;98900.27;1753744;80;21080;-68
2022/04/25 00:18:47;;;;;;;8.08;7.12;;;;;;;10.44;64.01;98897.20;1752137;81;21506;-68
2022/04/25 00:21:18;;;;;;;10.60;7.33;;;;;;;10.43;64.09;98897.77;1754038;81;21442;-69
2022/04/25 00:23:48;;;;;;;;;;;;;;;10.44;64.12;98900.74;1754524;81;21513;-66
2022/04/25 00:26:18;;;;;;;9.45;6.58;;;;;;;10.43;64.00;98901.89;1754255;80;20161;-66
2022/04/25 00:28:52;;;;;;;9.40;7.80;;;;;;;10.41;64.04;98902.80;1750411;81;21002;-66
2022/04/25 00:31:23;;;;;;;9.53;7.15;;;;;;;10.40;64.20;98902.57;1722138;81;21662;-67
2022/04/25 00:33:53;;;;;;;9.38;7.60;;;;;;;10.40;64.19;98906.70;1758399;80;21101;-70
2022/04/25 00:36:27;;;;;;;10.68;7.72;;;;;;;10.37;64.13;98903.24;1747036;81;21108;-70
2022/04/25 00:38:57;;;;;;;8.08;7.17;;;;;;;10.35;64.35;98901.39;1753908;81;21499;-69
2022/04/25 00:41:32;;;;;;;9.50;7.50;;;;;;;10.31;64.35;98890.79;1728916;81;21025;-69
2022/04/25 00:44:02;;;;;;;12.50;7.95;;;;;;;10.29;64.42;98897.20;1747381;81;21065;-69
2022/04/25 00:46:31;;;;;;;9.23;7.30;;;;;;;10.25;64.59;98894.33;1711922;82;21066;-66
2022/04/25 00:49:01;;;;;;;10.68;7.85;;;;;;;10.21;64.71;98888.67;1735750;81;21072;-68
2022/04/25 00:51:32;;;;;;;12.98;8.03;;;;;;;10.22;64.75;98883.95;1751795;80;21148;-69
2022/04/25 00:54:00;;;;;;;9.70;7.47;;;;;;;10.22;64.79;98875.70;1733587;82;20992;-68
2022/04/25 00:56:28;;;;;;;8.85;7.20;;;;;;;10.21;64.91;98876.84;1755351;80;20975;-68
2022/04/25 00:59:00;;;;;;;9.10;6.60;;;;;;;10.20;64.99;98870.52;1738997;80;21601;-67
2022/04/25 01:01:27;;;;;;;8.58;6.87;;;;;;;10.23;65.01;98871.82;1728675;82;21020;-68
2022/04/25 01:03:55;;;;;;;8.38;6.85;;;;;;;10.24;64.97;98867.91;1735147;81;21031;-67
2022/04/25 01:06:24;;;;;;;9.30;7.35;;;;;;;10.20;65.15;98865.02;1735300;80;21003;-66
2022/04/25 01:08:56;;;;;;;9.85;7.10;;;;;;;10.20;65.15;98867.77;1728790;82;21102;-67
2022/04/25 01:11:23;;;;;;;9.13;7.15;;;;;;;10.21;65.20;98864.45;1752303;80;21001;-67
2022/04/25 01:13:53;;;;;;;8.58;6.75;;;;;;;10.20;65.11;98855.38;1750968;81;21072;-67
2022/04/25 01:16:20;;;;;;;8.98;7.33;;;;;;;10.19;65.13;98857.91;1742695;80;21507;-67
2022/04/25 01:18:50;;;;;;;9.43;7.65;;;;;;;10.19;65.17;98852.41;1747033;80;21569;-69
2022/04/25 01:21:20;;;;;;;9.03;7.50;;;;;;;10.16;65.07;98849.51;1747190;80;21394;-69
2022/04/25 01:29:20;;;;;;;8.75;7.28;;;;;;;10.13;65.15;98844.12;1757139;80;21226;-68
2022/04/25 01:31:52;;;;;;;9.48;7.50;;;;;;;10.11;65.14;98831.25;1750852;80;21011;-66
2022/04/25 01:34:22;;;;;;;10.18;7.78;;;;;;;10.09;65.17;98832.96;1746982;80;21088;-70
2022/04/25 01:36:49;;;;;;;8.88;7.35;;;;;;;10.09;65.14;98831.59;1750964;80;21013;-69
2022/04/25 01:39:21;;;;;;;8.80;7.15;;;;;;;10.07;65.17;98831.11;1743406;80;21036;-71
2022/04/25 01:41:54;;;;;;;9.65;7.78;;;;;;;10.07;65.18;98831.11;1745297;80;21282;-69
2022/04/25 01:44:22;;;;;;;7.97;6.97;;;;;;;10.05;65.27;98826.50;1753401;80;21182;-66
2022/04/25 01:46:53;;;;;;;9.55;7.87;;;;;;;10.04;65.37;98824.90;1751013;80;21002;-67
2022/04/25 01:49:21;;;;;;;11.05;7.97;;;;;;;10.07;65.37;98828.91;1724570;81;21032;-69
2022/04/25 01:51:47;;;;;;;10.82;7.92;;;;;;;10.08;65.36;98826.42;1749896;80;21022;-67
2022/04/25 01:54:14;;;;;;;8.95;7.50;;;;;;;10.10;65.37;98832.37;1747224;80;21244;-70
2022/04/25 01:56:43;;;;;;;9.95;7.37;;;;;;;10.12;65.32;98834.23;1728119;81;21718;-68
2022/04/25 01:59:11;;;;;;;10.03;6.62;;;;;;;10.13;65.25;98831.73;1746366;80;21038;-69
2022/04/25 02:01:38;;;;;;;9.20;7.58;;;;;;;10.10;65.27;98834.56;1742557;81;21036;-67
2022/04/25 02:04:05;;;;;;;9.83;7.92;;;;;;;10.09;65.37;98826.64;1746474;80;21056;-67
2022/04/25 02:06:35;;;;;;;10.13;7.37;;;;;;;10.09;65.41;98823.89;1755462;80;21313;-66
2022/04/25 02:09:08;;;;;;;9.15;7.75;;;;;;;10.09;65.44;98828.02;1745063;80;21604;-67
2022/04/25 02:11:42;;;;;;;8.53;7.08;;;;;;;10.05;65.64;98829.25;1751235;80;21632;-67
2022/04/25 02:14:14;;;;;;;13.15;8.43;;;;;;;10.02;65.69;98835.98;1747866;80;21112;-66
2022/04/25 02:16:44;;;;;;;10.40;7.83;;;;;;;9.99;65.81;98837.47;1750107;80;21154;-68
2022/04/25 02:19:14;;;;;;;11.03;7.80;;;;;;;9.98;65.80;98840.78;1760663;80;21039;-68
2022/04/25 02:21:44;;;;;;;9.15;7.08;;;;;;;10.02;65.82;98841.49;1748241;81;21016;-69
2022/04/25 02:24:15;;;;;;;11.60;7.47;;;;;;;10.03;65.83;98838.41;1752370;80;21049;-73
2022/04/25 02:26:48;;;;;;;10.85;7.97;;;;;;;10.04;65.89;98833.16;1759155;80;21030;-73
2022/04/25 02:29:20;;;;;;;11.88;7.85;;;;;;;10.09;65.71;98827.45;1761953;80;20971;-68
2022/04/25 02:31:49;;;;;;;10.50;8.45;;;;;;;10.05;65.89;98834.75;1755768;80;20960;-67
2022/04/25 02:34:16;;;;;;;10.43;7.95;;;;;;;10.02;65.87;98836.80;1752937;80;21441;-66
2022/04/25 02:36:49;;;;;;;9.58;7.12;;;;;;;9.97;66.01;98824.05;1749207;81;21008;-67
2022/04/25 02:39:21;;;;;;;11.38;7.60;;;;;;;9.92;66.09;98820.11;1732587;81;21189;-69
2022/04/25 02:41:51;;;;;;;10.18;8.15;;;;;;;9.90;66.20;98814.69;1761962;80;21121;-69
2022/04/25 02:44:22;;;;;;;9.83;7.60;;;;;;;9.89;66.36;98811.15;1746743;81;21024;-73
2022/04/25 02:46:51;;;;;;;11.08;8.20;;;;;;;9.86;66.37;98805.73;1757464;80;21075;-71
2022/04/25 02:49:23;;;;;;;10.65;7.90;;;;;;;9.86;66.50;98811.79;1735523;81;21002;-72
2022/04/25 02:51:50;;;;;;;11.90;8.00;;;;;;;9.86;66.49;98810.41;1740000;80;21036;-71
2022/04/25 02:54:19;;;;;;;9.40;7.70;;;;;;;9.82;66.41;98813.61;1757695;80;21038;-68
2022/04/25 02:56:48;;;;;;;9.98;7.65;;;;;;;9.83;66.52;98812.46;1755195;80;21092;-69
2022/04/25 02:59:20;;;;;;;10.63;7.60;;;;;;;9.82;66.50;98825.43;1751041;80;21029;-73
2022/04/25 03:01:51;;;;;;;9.15;7.67;;;;;;;9.79;66.66;98816.44;1759750;80;21009;-67
2022/04/25 03:04:19;;;;;;;9.20;7.50;;;;;;;9.78;66.78;98818.97;1755093;80;21264;-72
2022/04/25 03:06:50;;;;;;;10.75;8.13;;;;;;;9.78;66.82;98814.02;1734475;81;21026;-68
2022/04/25 03:09:21;;;;;;;10.55;7.65;;;;;;;9.81;66.82;98812.01;1753002;80;21243;-73
2022/04/25 03:11:50;;;;;;;9.00;7.37;;;;;;;9.87;66.80;98803.79;1759969;80;21018;-71
2022/04/25 03:14:22;;;;;;;9.90;7.95;;;;;;;9.90;66.69;98797.61;1764432;79;21505;-70
2022/04/25 03:16:58;;;;;;;8.50;7.20;;;;;;;9.92;66.53;98795.34;1743238;79;21112;-69
2022/04/25 03:19:26;;;;;;;10.90;6.42;;;;;;;9.94;66.39;98788.94;1737840;82;20971;-69
2022/04/25 03:21:55;;;;;;;10.75;7.58;;;;;;;9.92;66.49;98782.96;1738672;82;21065;-69
2022/04/25 03:24:26;;;;;;;9.33;7.03;;;;;;;9.97;66.28;98784.70;1737912;82;21061;-69
2022/04/25 03:26:56;;;;;;;9.63;7.00;;;;;;;9.93;66.49;98785.94;1741077;82;21562;-67
2022/04/25 03:29:24;;;;;;;10.10;7.55;;;;;;;9.94;66.42;98777.94;1737250;80;20969;-67
2022/04/25 03:31:59;;;;;;;9.55;6.35;;;;;;;10.03;66.35;98786.11;1772551;80;21014;-66
2022/04/25 03:34:27;;;;;;;8.98;7.10;;;;;;;10.07;66.28;98782.13;1772922;79;21073;-69
2022/04/25 03:36:57;;;;;;;9.85;7.47;;;;;;;10.03;66.50;98778.44;1733626;81;21016;-70
2022/04/25 03:39:29;;;;;;;10.08;7.33;;;;;;;10.07;66.56;98765.61;1707515;82;21007;-70
2022/04/25 03:42:01;;;;;;;11.20;7.37;;;;;;;10.12;66.37;98763.25;1742712;81;21017;-68
2022/04/25 03:44:31;;;;;;;9.75;7.40;;;;;;;10.15;66.26;98760.60;1740397;81;21021;-69
2022/04/25 03:47:00;;;;;;;8.40;7.08;;;;;;;10.21;65.97;98751.58;1742103;81;21973;-66
2022/04/25 03:49:28;;;;;;;9.08;7.25;;;;;;;10.27;65.75;98759.86;1747881;81;21046;-66
2022/04/25 03:51:57;;;;;;;9.80;7.60;;;;;;;10.31;65.33;98757.24;1749145;81;21057;-71
2022/04/25 03:57:21;;;;;;;7.25;6.35;;;;;;;10.38;65.22;98752.57;1748664;80;21494;-68
2022/04/25 03:59:49;;;;;;;9.45;7.53;;;;;;;10.49;64.89;98768.97;1730007;81;21546;-67
2022/04/25 04:02:17;;;;;;;8.93;6.97;;;;;;;10.53;64.80;98774.58;1750872;80;20970;-69
2022/04/25 04:04:47;;;;;;;10.13;6.95;;;;;;;10.60;64.77;98774.84;1748174;81;21008;-69
2022/04/25 04:07:16;;;;;;;8.25;6.42;;;;;;;10.65;64.64;98766.37;1728016;82;20985;-67
2022/04/25 04:09:47;;;;;;;10.88;7.17;;;;;;;10.71;64.69;98764.22;1742948;81;21005;-70
2022/04/25 04:12:16;;;;;;;8.90;6.50;;;;;;;10.79;64.72;98766.64;1747193;81;22152;-68
2022/04/25 04:14:47;;;;;;;8.18;6.60;;;;;;;10.87;64.58;98768.50;1747232;81;21016;-71
2022/04/25 04:17:17;;;;;;;9.10;6.60;;;;;;;10.88;64.39;98760.48;1746190;81;21104;-69
2022/04/25 04:19:47;;;;;;;12.85;6.55;;;;;;;11.00;64.11;98756.13;1751490;80;21002;-70
2022/04/25 04:22:20;;;;;;;7.90;6.30;;;;;;;11.04;64.19;98761.17;1754587;80;21041;-67
2022/04/25 04:24:46;;;;;;;10.00;6.78;;;;;;;11.14;63.93;98758.58;1735864;80;21888;-68
2022/04/25 04:27:16;;;;;;;11.28;6.95;;;;;;;11.18;63.87;98752.03;1775354;80;21019;-70
2022/04/25 04:29:44;;;;;;;8.75;7.80;;;;;;;11.22;63.88;98744.44;1779561;79;20976;-70
2022/04/25 04:32:14;;;;;;;8.48;6.47;;;;;;;11.26;63.59;98742.02;1775236;80;21559;-69
2022/04/25 04:34:42;;;;;;;8.25;6.67;;;;;;;11.31;63.25;98743.77;1783733;79;21075;-69
2022/04/25 04:37:09;;;;;;;7.95;6.08;;;;;;;11.41;62.94;98743.29;1776570;80;21511;-70
2022/04/25 04:39:39;;;;;;;10.15;6.60;;;;;;;11.46;62.69;98740.09;1772988;79;21484;-69
2022/04/25 04:42:09;;;;;;;14.43;8.23;;;;;;;11.51;62.52;98748.13;1777636;79;21043;-66
2022/04/25 04:44:37;;;;;;;14.20;8.80;;;;;;;11.56;62.41;98747.34;1759870;80;21034;-69
2022/04/25 04:47:09;;;;;;;11.08;7.25;;;;;;;11.61;62.43;98750.43;1756169;80;21058;-68
2022/04/25 04:49:39;;;;;;;12.77;6.90;;;;;;;11.62;62.26;98749.27;1755564;80;21161;-69
2022/04/25 04:52:08;;;;;;;8.88;6.15;;;;;;;11.70;62.16;98753.07;1750666;80;21030;-70
2022/04/25 04:54:36;;;;;;;8.43;6.22;;;;;;;11.75;62.01;98744.56;1752268;79;21028;-69
2022/04/25 04:57:08;;;;;;;13.90;6.55;;;;;;;11.79;61.96;98739.12;1776493;79;20997;-69
2022/04/25 04:59:37;;;;;;;8.75;6.80;;;;;;;11.83;61.81;98742.81;1751111;80;21482;-68
2022/04/25 05:02:06;;;;;;;8.90;6.62;;;;;;;11.90;61.75;98738.89;1757002;80;21277;-67
2022/04/25 05:04:33;;;;;;;8.45;6.83;;;;;;;11.98;61.89;98736.33;1757555;80;21032;-67
2022/04/25 05:07:05;;;;;;;10.18;6.85;;;;;;;12.04;61.98;98737.72;1796652;79;21082;-66
2022/04/25 05:09:35;;;;;;;7.97;6.87;;;;;;;12.09;62.09;98734.73;1793675;79;20962;-70
2022/04/25 05:12:08;;;;;;;10.10;7.28;;;;;;;12.17;62.15;98732.41;1760988;80;21025;-70
2022/04/25 05:14:39;;;;;;;12.30;6.22;;;;;;;12.27;62.08;98741.34;1797969;79;21342;-69
2022/04/25 05:17:10;;;;;;;11.60;6.50;;;;;;;12.36;62.27;98733.73;1792621;79;21010;-74
2022/04/25 05:19:45;;;;;;;8.70;5.97;;;;;;;12.41;62.35;98732.66;1795309;79;20988;-68
2022/04/25 05:22:15;;;;;;;8.03;5.92;;;;;;;12.51;62.09;98740.45;1770633;80;21007;-73
2022/04/25 05:24:48;;;;;;;6.80;4.90;;;;;;;12.58;61.75;98742.61;1759699;80;21080;-71
2022/04/25 05:27:22;;;;;;;9.58;6.20;;;;;;;12.65;61.63;98749.72;1761828;80;21957;-67
2022/04/25 05:29:51;;;;;;;8.68;5.62;;;;;;;12.70;61.94;98736.22;1727768;81;21000;-68
2022/04/25 05:32:18;;;;;;;8.33;5.92;;;;;;;12.70;62.01;98730.69;1736354;80;21013;-70
2022/04/25 05:34:46;;;;;;;9.05;5.72;;;;;;;12.73;62.21;98727.78;1759488;80;21060;-69
2022/04/25 05:37:16;;;;;;;9.15;6.15;;;;;;;12.79;62.17;98727.77;1733152;80;21087;-72
2022/04/25 05:39:43;;;;;;;9.03;5.85;;;;;;;12.85;62.42;98721.37;1761648;80;21164;-70
2022/04/25 05:42:09;;;;;;;8.15;5.60;;;;;;;12.90;62.38;98710.88;1782952;79;21124;-68
2022/04/25 05:44:42;;;;;;;8.10;5.78;;;;;;;12.99;62.52;98705.74;1783310;79;21030;-69
2022/04/25 05:47:14;;;;;;;12.33;5.75;;;;;;;13.08;62.49;98706.38;1756741;80;21029;-71
2022/04/25 05:52:31;;;;;;;14.38;5.50;;;;;;;13.20;62.61;98697.77;1752677;80;20975;-69
2022/04/25 05:54:59;;;;;;;8.18;5.85;;;;;;;13.35;62.88;98691.41;1750303;81;20997;-66
2022/04/25 05:57:32;;;;;;;10.20;5.67;;;;;;;13.46;62.94;98695.02;1749535;81;21048;-68
2022/04/25 06:00:03;;;;;;;9.20;5.50;;;;;;;13.54;63.28;98691.85;1766218;80;20955;-68
2022/04/25 06:02:40;;;;;;;10.90;6.17;;;;;;;13.65;63.18;98699.80;1779111;79;20984;-68
2022/04/25 06:05:11;;;;;;;13.90;5.92;;;;;;;13.74;63.06;98693.50;1783320;79;20978;-67
2022/04/25 06:07:43;;;;;;;9.80;6.25;;;;;;;13.87;63.44;98691.39;1771911;80;21042;-67
2022/04/25 06:10:13;;;;;;;10.43;5.95;;;;;;;14.00;63.67;98692.66;1763138;79;21075;-70
2022/04/25 06:12:49;;;;;;;8.53;6.12;;;;;;;14.12;63.42;98694.48;1775155;79;21002;-70
2022/04/25 06:15:24;;;;;;;8.68;6.08;;;;;;;14.22;63.49;98691.70;1781293;79;21052;-70
2022/04/25 06:17:52;;;;;;;7.35;5.72;;;;;;;14.34;63.63;98686.59;1761572;80;21755;-71
2022/04/25 06:20:25;;;;;;;7.78;5.83;;;;;;;14.46;63.59;98687.83;1758031;80;21522;-70
2022/04/25 06:22:58;;;;;;;9.05;5.40;;;;;;;14.61;63.63;98681.15;1756385;80;21057;-72
2022/04/25 06:25:30;;;;;;;8.35;5.17;;;;;;;14.75;63.84;98679.80;1761643;79;21067;-67
2022/04/25 06:28:00;;;;;;;7.92;5.00;;;;;;;14.88;63.95;98676.28;1737485;81;21037;-67
2022/04/25 06:30:31;;;;;;;9.40;5.47;;;;;;;14.99;63.75;98673.70;1762739;80;21553;-70
2022/04/25 06:33:05;;;;;;;6.95;5.53;;;;;;;15.13;63.76;98675.92;1752930;80;21072;-68
2022/04/25 06:35:34;;;;;;;12.10;6.78;;;;;;;15.24;63.89;98667.75;1786750;79;21072;-73
2022/04/25 06:38:06;;;;;;;10.55;5.80;;;;;;;15.34;63.74;98664.34;1784019;79;21480;-68
2022/04/25 06:40:47;;;;;;;13.53;5.90;;;;;;;15.44;63.61;98664.28;1796568;79;21057;-71
2022/04/25 06:43:17;;;;;;;10.10;5.62;;;;;;;15.54;63.32;98656.70;1772804;79;21013;-68
2022/04/25 06:45:57;;;;;;;10.55;6.55;;;;;;;15.67;62.91;98652.31;1792715;79;21537;-70
2022/04/25 06:48:27;;;;;;;8.05;5.55;;;;;;;15.77;63.15;98655.83;1779895;79;21092;-69
2022/04/25 06:50:57;;;;;;;7.95;5.45;;;;;;;15.85;62.68;98651.16;1749023;80;21060;-69
2022/04/25 06:53:26;;;;;;;8.45;5.53;;;;;;;15.95;62.69;98645.52;1757073;80;21518;-70
2022/04/25 06:55:59;;;;;;;10.93;5.47;;;;;;;16.04;62.74;98648.03;1774444;79;21046;-67
2022/04/25 06:58:29;;;;;;;8.53;4.75;;;;;;;16.15;62.52;98645.40;1771456;80;21057;-66
2022/04/25 07:00:57;;;;;;;9.68;5.30;;;;;;;16.27;62.45;98640.17;1780015;79;21110;-67
2022/04/25 07:03:27;;;;;;;8.93;5.70;;;;;;;16.38;62.02;98633.31;1774012;78;21041;-66
2022/04/25 07:05:58;;;;;;;8.08;4.70;;;;;;;16.49;61.94;98630.66;1762902;80;21013;-71
2022/04/25 07:08:28;;;;;;;10.40;5.33;;;;;;;16.62;61.75;98632.56;1749869;81;21245;-71
2022/04/25 07:11:07;;;;;;;6.58;5.20;;;;;;;16.73;61.41;98629.89;1746916;81;21398;-72
2022/04/25 07:13:35;;;;;;;7.70;5.15;;;;;;;16.79;61.15;98633.32;1753053;80;21482;-67
2022/04/25 07:16:06;;;;;;;7.03;4.97;;;;;;;16.87;61.42;98635.56;1740723;80;21083;-70
2022/04/25 07:18:42;;;;;;;8.33;5.00;;;;;;;16.92;61.33;98630.25;1755618;79;21514;-68
2022/04/25 07:29:57;;;;;;;10.88;5.72;;;;;;;17.11;60.66;98623.66;1727979;80;21547;-68
2022/04/25 07:32:32;;;;;;;5.12;4.53;;;;;;;17.15;60.70;98618.11;1755977;80;21047;-69
2022/04/25 07:35:04;;;;;;;10.15;4.97;;;;;;;17.22;60.69;98612.61;1756916;79;21068;-69
2022/04/25 07:37:33;;;;;;;17.00;5.17;;;;;;;17.28;60.56;98616.61;1779410;79;21074;-67
2022/04/25 07:40:08;;;;;;;7.72;4.47;;;;;;;17.31;60.25;98610.88;1783508;79;21572;-68
2022/04/25 07:42:42;;;;;;;8.90;4.45;;;;;;;17.27;60.00;98615.02;1754229;80;21005;-71
2022/04/25 07:45:13;;;;;;;9.95;5.05;;;;;;;17.22;59.93;98610.41;1757534;80;21071;-72
2022/04/25 07:47:46;;;;;;;7.65;4.75;;;;;;;17.16;60.18;98605.81;1756255;80;20977;-70
2022/04/25 07:50:22;;;;;;;6.92;4.90;;;;;;;17.17;60.41;98606.01;1754737;80;21036;-71
2022/04/25 07:52:47;;;;;;;8.23;4.70;;;;;;;17.24;60.58;98596.91;1746034;80;21031;-69
2022/04/25 07:55:18;;;;;;;6.53;4.42;;;;;;;17.28;60.42;98594.34;1768034;80;21371;-71
2022/04/25 07:57:46;;;;;;;7.90;4.40;;;;;;;17.33;60.32;98597.34;1772483;80;21075;-66
2022/04/25 08:00:16;;;;;;;7.83;4.30;;;;;;;17.38;60.27;98596.98;1747290;80;21509;-67
2022/04/25 08:02:47;;;;;;;7.40;4.35;;;;;;;17.47;60.16;98614.73;1740749;81;21239;-68
2022/04/25 08:05:19;;;;;;;9.50;5.67;;;;;;;17.60;59.59;98618.00;1774968;80;21016;-70
2022/04/25 08:07:49;;;;;;;8.23;4.45;;;;;;;17.71;59.65;98624.19;1777510;80;21000;-69
2022/04/25 08:10:22;;;;;;;6.83;3.77;;;;;;;17.77;58.78;98637.97;1778171;80;20999;-70
2022/04/25 08:18:29;;;;;;;8.83;4.50;;;;;;;18.18;57.96;98629.19;1744544;80;21056;-70
2022/04/25 08:20:59;;;;;;;9.33;4.33;;;;;;;18.30;57.66;98637.20;1761685;80;21062;-67
2022/04/25 08:23:29;;;;;;;8.28;4.08;;;;;;;18.33;56.63;98623.86;1739049;80;21030;-71
2022/04/25 08:26:00;;;;;;;12.03;4.40;;;;;;;18.37;57.05;98627.44;1746930;80;21262;-67
2022/04/25 08:28:29;;;;;;;11.12;4.75;;;;;;;18.46;57.20;98618.69;1746877;80;21127;-72
2022/04/25 08:30:58;;;;;;;7.83;4.37;;;;;;;18.54;57.19;98620.11;1741363;80;21061;-70
2022/04/25 08:33:24;;;;;;;7.72;4.28;;;;;;;18.63;56.84;98622.52;1747951;80;21058;-71
2022/04/25 08:35:53;;;;;;;7.17;4.10;;;;;;;18.70;56.26;98620.52;1746098;80;21042;-69
2022/04/25 08:38:20;;;;;;;9.95;4.60;;;;;;;18.80;55.83;98620.93;1749493;80;21144;-69
2022/04/25 08:40:47;;;;;;;6.75;4.15;;;;;;;18.85;55.79;98613.55;1702881;82;21085;-69
2022/04/25 08:43:18;;;;;;;6.25;3.92;;;;;;;18.91;55.44;98618.12;1705631;82;21035;-72
2022/04/25 08:45:45;;;;;;;13.00;4.90;;;;;;;18.94;55.60;98615.34;1700885;82;21047;-67
2022/04/25 08:48:15;;;;;;;9.53;4.50;;;;;;;18.97;55.31;98610.34;1695239;84;21054;-66
2022/04/25 08:50:44;;;;;;;10.28;5.05;;;;;;;19.04;55.69;98609.55;1698688;82;21043;-70
2022/04/25 08:53:15;;;;;;;7.65;4.65;;;;;;;19.20;55.36;98608.36;1678987;82;21579;-68
2022/04/25 08:55:44;;;;;;;7.83;4.17;;;;;;;19.33;54.73;98612.33;1698846;82;21031;-67
2022/04/25 08:58:14;;;;;;;11.05;6.15;;;;;;;19.31;54.62;98611.92;1682029;84;21115;-67
2022/04/25 09:00:42;;;;;;;13.65;6.33;;;;;;;19.29;54.43;98618.53;1724869;81;21535;-68
2022/04/25 09:03:12;;;;;;;10.00;5.10;;;;;;;19.18;54.42;98615.74;1692021;82;21118;-66
2022/04/25 09:05:42;;;;;;;8.30;5.42;;;;;;;19.09;55.01;98625.08;1712118;83;21607;-68
2022/04/25 09:08:11;;;;;;;9.53;5.42;;;;;;;19.02;55.17;98626.50;1713260;81;21100;-72
2022/04/25 09:10:40;;;;;;;9.90;5.92;;;;;;;18.96;55.64;98635.27;1673899;84;21024;-70
2022/04/25 09:13:12;;;;;;;9.40;6.05;;;;;;;18.96;55.90;98637.26;1699352;82;21090;-69
2022/04/25 09:15:43;;;;;;;8.43;4.75;;;;;;;19.02;55.71;98636.27;1760685;80;21157;-66
2022/04/25 09:18:10;;;;;;;9.38;5.10;;;;;;;19.07;55.93;98651.22;1729601;81;21000;-69
2022/04/25 09:20:39;;;;;;;9.58;5.40;;;;;;;19.14;55.77;98649.83;1792126;79;21041;-68
2022/04/25 09:23:19;;;;;;;11.43;6.05;;;;;;;19.21;55.37;98643.44;1723560;81;21513;-69
2022/04/25 09:26:15;;;;;;;8.88;5.72;;;;;;;19.23;54.99;98645.86;1769224;80;21030;-66
2022/04/25 09:28:57;;;;;;;11.00;5.37;;;;;;;19.25;55.66;98653.22;1731051;82;21520;-67
2022/04/25 09:31:32;;;;;;;;;;;;;;;19.35;55.39;98642.63;1769622;80;21001;-67
2022/04/25 09:34:14;;;;;;;11.53;6.37;;;;;;;19.37;55.03;98643.03;1767541;80;20167;-70
2022/04/25 09:36:48;;;;;;;11.28;5.47;;;;;;;19.33;54.87;98650.02;1757306;81;21560;-67
2022/04/25 09:39:32;;;;;;;11.60;5.47;;;;;;;19.34;55.09;98639.66;1731288;80;21054;-69
2022/04/25 09:42:07;;;;;;;7.47;4.80;;;;;;;19.36;54.72;98642.85;1764098;80;21287;-68
2022/04/25 09:45:00;;;;;;;11.78;4.85;;;;;;;19.38;55.34;98642.45;1765235;80;21016;-68
2022/04/25 09:47:38;;;;;;;6.85;4.75;;;;;;;19.49;55.06;98641.81;1765586;80;21019;-68
2022/04/25 09:50:12;;;;;;;8.43;4.58;;;;;;;19.55;54.22;98654.78;1746689;80;21022;-68
2022/04/25 09:52:59;;;;;;;10.65;5.60;;;;;;;19.44;54.35;98643.63;1749084;80;20997;-69
2022/04/25 09:55:35;;;;;;;10.82;4.42;;;;;;;19.33;54.70;98638.85;1746050;80;22336;-67
2022/04/25 09:58:23;;;;;;;9.25;5.20;;;;;;;19.17;54.93;98642.08;1751184;80;21128;-67
2022/04/25 10:00:53;;;;;;;10.58;5.80;;;;;;;19.05;55.44;98641.05;1745466;80;21066;-66
2022/04/25 10:03:36;;;;;;;10.00;4.83;;;;;;;18.91;55.52;98644.63;1708581;80;21028;-69
2022/04/25 10:06:07;;;;;;;13.03;7.72;;;;;;;18.75;56.04;98646.44;1751894;80;21584;-70
2022/04/25 10:08:37;;;;;;;9.33;6.22;;;;;;;18.70;56.51;98646.20;1749221;80;21006;-68
2022/04/25 10:11:07;;;;;;;11.83;6.87;;;;;;;18.68;56.84;98650.80;1727276;81;21062;-69
2022/04/25 10:13:36;;;;;;;11.97;6.65;;;;;;;18.67;56.90;98646.42;1722475;80;21551;-66
2022/04/25 10:16:11;;;;;;;9.90;6.42;;;;;;;18.63;56.72;98652.58;1745750;80;21014;-65
2022/04/25 10:18:43;;;;;;;11.73;5.65;;;;;;;18.56;56.84;98645.61;1746541;80;21664;-68
2022/04/25 10:21:11;;;;;;;9.98;5.67;;;;;;;18.53;57.25;98638.82;1765332;79;21282;-69
2022/04/25 10:23:46;;;;;;;13.55;6.17;;;;;;;18.56;57.14;98640.81;1754805;80;22146;-69
2022/04/25 10:26:17;;;;;;;10.45;6.15;;;;;;;18.58;57.00;98644.59;1745698;80;21048;-70
2022/04/25 10:28:57;;;;;;;9.58;6.00;;;;;;;18.59;57.06;98644.81;1753014;80;21023;-67
2022/04/25 10:31:30;;;;;;;6.85;5.08;;;;;;;18.64;57.31;98645.02;1758695;80;21964;-67
2022/04/25 10:33:59;;;;;;;15.33;6.93;;;;;;;18.71;57.07;98636.05;1753621;80;23477;-67
2022/04/25 10:36:43;;;;;;;16.60;6.30;;;;;;;18.82;56.94;98638.05;1763952;80;21744;-71
2022/04/25 10:39:20;;;;;;;10.70;6.03;;;;;;;18.95;56.61;98647.62;1759765;80;21115;-68
2022/04/25 10:44:53;;;;;;;8.25;5.28;;;;;;;19.20;55.69;98649.65;1747310;80;21071;-70
2022/04/25 10:47:27;;;;;;;13.93;5.20;;;;;;;19.38;55.72;98642.45;1708912;80;21266;-69
2022/04/25 10:49:59;;;;;;;16.60;5.97;;;;;;;;;;1730616;80;21517;-68
2022/04/25 10:52:52;;;;;;;8.00;4.62;;;;;;;19.64;54.31;98644.56;1766547;80;21112;-68
2022/04/25 10:55:36;;;;;;;10.48;5.17;;;;;;;19.72;54.32;98646.13;1756431;80;20990;-67
2022/04/25 10:58:12;;;;;;;8.43;4.83;;;;;;;19.82;54.10;98643.13;1759310;80;20971;-67
2022/04/25 11:00:47;;;;;;;10.20;4.80;;;;;;;19.91;52.96;98644.06;1760860;80;21152;-68
2022/04/25 11:03:28;;;;;;;9.60;5.42;;;;;;;19.98;52.62;98643.27;1752770;80;21003;-69
2022/04/25 11:06:03;;;;;;;15.88;5.50;;;;;;;20.05;52.50;98644.64;1754920;80;21036;-67
2022/04/25 11:08:38;;;;;;;8.45;5.53;;;;;;;20.06;53.17;98639.27;1760572;80;20971;-70
2022/04/25 11:11:22;;;;;;;9.13;5.40;;;;;;;20.11;52.86;98640.84;1764521;80;21019;-67
2022/04/25 11:14:01;;;;;;;15.78;5.37;;;;;;;20.13;53.06;98643.41;1709293;80;21533;-69
2022/04/25 11:16:26;;;;;;;11.03;4.70;;;;;;;20.12;51.88;98649.41;1758019;80;21035;-71
2022/04/25 11:19:19;;;;;;;15.38;5.50;;;;;;;20.03;52.28;98649.81;1724044;82;21544;-67
2022/04/25 11:21:55;;;;;;;15.20;5.28;;;;;;;19.98;52.18;98647.46;1728906;82;20980;-69
2022/04/25 11:24:35;;;;;;;12.07;5.42;;;;;;;19.95;52.43;98646.26;1729407;82;20959;-69
2022/04/25 11:27:12;;;;;;;10.70;4.35;;;;;;;19.91;52.47;98647.67;1729852;82;21817;-67
2022/04/25 11:29:52;;;;;;;11.57;4.58;;;;;;;19.89;52.31;98643.70;1725685;82;21058;-67
2022/04/25 11:32:43;;;;;;;8.65;4.85;;;;;;;19.86;52.63;98654.30;1719498;81;21036;-66
2022/04/25 11:35:00;;;;;;;15.98;5.10;;;;;;;19.85;52.78;98661.88;1726217;82;21007;-70
2022/04/25 11:37:32;;;;;;;18.82;6.10;;;;;;;19.87;52.90;98665.66;1732513;82;21037;-69
2022/04/25 11:40:08;;;;;;;13.80;5.33;;;;;;;19.64;52.93;98666.91;1729430;82;21369;-70
2022/04/25 11:42:36;;;;;;;13.08;5.20;;;;;;;19.49;53.44;98656.38;1733040;82;21468;-71
2022/04/25 11:45:07;;;;;;;9.58;5.25;;;;;;;19.40;53.50;98660.37;1729055;82;21085;-67
2022/04/25 11:47:35;;;;;;;9.33;5.37;;;;;;;19.36;53.52;98654.61;1714602;82;21013;-68
2022/04/25 11:50:10;;;;;;;10.08;5.20;;;;;;;19.36;54.10;98649.83;1732747;82;21112;-67
2022/04/25 11:52:51;;;;;;;21.05;5.72;;;;;;;19.38;53.84;98638.26;1726799;82;21061;-66
2022/04/25 11:55:36;;;;;;;12.90;5.28;;;;;;;19.41;54.21;98639.65;1713748;82;20993;-70
2022/04/25 11:58:13;;;;;;;11.88;5.45;;;;;;;19.48;54.38;98636.63;1729534;82;20976;-72
2022/04/25 12:00:50;;;;;;;10.60;4.65;;;;;;;19.54;53.87;98634.42;1729361;82;21035;-67
2022/04/25 12:03:24;;;;;;;9.95;5.47;;;;;;;19.62;53.87;98632.39;1712779;82;21475;-68
2022/04/25 12:05:52;;;;;;;12.78;5.05;;;;;;;19.69;53.56;98632.38;1730433;82;21026;-69
2022/04/25 12:16:51;;;;;;;10.93;5.35;;;;;;;19.91;52.14;98639.88;1730016;82;21448;-66
2022/04/25 12:19:18;;;;;;;5.83;4.03;;;;;;;19.85;51.82;98637.31;1739352;81;21294;-72
2022/04/25 12:22:03;;;;;;;11.70;4.62;;;;;;;19.80;51.98;98637.14;1755335;80;21182;-68
2022/04/25 12:24:30;;;;;;;9.18;5.50;;;;;;;19.79;52.20;98629.97;1753818;80;21537;-67
2022/04/25 12:27:10;;;;;;;10.03;5.58;;;;;;;19.78;52.88;98628.36;1748935;81;21512;-69
2022/04/25 12:30:08;;;;;;;9.57;5.63;;;;;;;19.76;53.68;98626.56;1759537;80;20987;-70